Home > Products > Valid Products > TAF

000
FTUS44 KBMX 241700
TAFTOI
TAF
KTOI 241721Z 2418/2518 33008KT P6SM SKC
     FM250100 00000KT P6SM SKC=



000
FTUS44 KBMX 241700
TAFBHM
TAF
KBHM 241721Z 2418/2518 35007KT P6SM SKC
     FM250100 00000KT P6SM SKC=



000
FTUS44 KBMX 241700
TAFMGM
TAF
KMGM 241721Z 2418/2518 32008KT P6SM SKC
     FM250000 32003KT P6SM SKC=



000
FTUS44 KBMX 241700
TAFTCL
TAF
KTCL 241721Z 2418/2518 34007KT P6SM SKC
     FM250100 00000KT P6SM SKC=



000
FTUS44 KBMX 241700
TAFEET
TAF
KEET 241721Z 2418/2518 35007KT P6SM SKC
     FM250000 00000KT P6SM SKC=



000
FTUS44 KBMX 241700
TAFANB
TAF
KANB 241721Z 2418/2518 34006KT P6SM SKC
     FM250100 00000KT P6SM SKC=



000
FTUS44 KBMX 241100
TAFEET
TAF
KEET 241120Z 2412/2512 33003KT P6SM BKN250
     FM241700 34007KT P6SM SKC
     FM250100 00000KT P6SM SKC=



000
FTUS44 KBMX 241100
TAFTOI
TAF
KTOI 241120Z 2412/2512 VRB03KT P6SM SCT250
     FM241800 34007KT P6SM SKC
     FM250100 00000KT P6SM SKC=



000
FTUS44 KBMX 241100
TAFBHM
TAF
KBHM 241120Z 2412/2512 33003KT P6SM BKN250
     FM241700 35007KT P6SM SKC
     FM250100 32003KT P6SM SKC=



000
FTUS44 KBMX 241100
TAFANB
TAF
KANB 241120Z 2412/2512 VRB03KT P6SM BKN250
     FM241800 33007KT P6SM SKC
     FM250100 00000KT P6SM SKC=



000
FTUS44 KBMX 241100
TAFMGM
TAF
KMGM 241120Z 2412/2512 VRB03KT P6SM SCT250
     FM241800 34007KT P6SM SKC
     FM250100 32003KT P6SM SKC=



000
FTUS44 KBMX 241100
TAFTCL
TAF
KTCL 241120Z 2412/2512 VRB04KT P6SM BKN250
     FM241600 33006KT P6SM SKC
     FM250100 00000KT P6SM SKC=



000
FTUS44 KBMX 240500
TAFEET
TAF
KEET 240520Z 2406/2506 00000KT P6SM BKN250
     FM241700 34007KT P6SM SKC
     FM250100 00000KT P6SM SKC=



000
FTUS44 KBMX 240500
TAFTOI
TAF
KTOI 240520Z 2406/2506 00000KT P6SM SCT250
     FM241700 34007KT P6SM SKC
     FM250100 00000KT P6SM SKC=



000
FTUS44 KBMX 240500
TAFANB
TAF
KANB 240520Z 2406/2506 00000KT P6SM BKN250
     FM241800 33006KT P6SM SKC
     FM250100 00000KT P6SM SKC=



000
FTUS44 KBMX 240500
TAFMGM
TAF
KMGM 240520Z 2406/2506 00000KT P6SM SCT250
     FM241700 34007KT P6SM SKC
     FM250100 32003KT P6SM SKC=



000
FTUS44 KBMX 240500
TAFBHM
TAF
KBHM 240520Z 2406/2506 00000KT P6SM BKN250
     FM241600 35007KT P6SM SKC
     FM250100 32003KT P6SM SKC=



000
FTUS44 KBMX 240500
TAFTCL
TAF
KTCL 240520Z 2406/2506 00000KT P6SM BKN250
     FM241500 33006KT P6SM SKC
     FM250100 00000KT P6SM SKC=



000
FTUS44 KBMX 232300
TAFEET
TAF
KEET 232327Z 2400/2424 33003KT P6SM BKN250=



000
FTUS44 KBMX 232300
TAFTCL
TAF
KTCL 232327Z 2400/2424 34004KT P6SM SCT250=



000
FTUS44 KBMX 232300
TAFBHM
TAF
KBHM 232327Z 2400/2424 36004KT P6SM BKN250=



000
FTUS44 KBMX 232300
TAFTOI
TAF
KTOI 232327Z 2400/2424 34003KT P6SM SKC=



000
FTUS44 KBMX 232300
TAFMGM
TAF
KMGM 232327Z 2400/2424 34003KT P6SM SKC=



000
FTUS44 KBMX 232300
TAFANB
TAF
KANB 232327Z 2400/2424 VRB02KT P6SM SCT250
     FM241800 33006KT P6SM SKC=



000
FTUS44 KBMX 231700
TAFANB
TAF
KANB 231720Z 2318/2418 32005KT P6SM SCT250=



000
FTUS44 KBMX 231700
TAFTCL
TAF
KTCL 231720Z 2318/2418 35004KT P6SM SCT250=



000
FTUS44 KBMX 231700
TAFBHM
TAF
KBHM 231720Z 2318/2418 35005KT P6SM SCT250=



000
FTUS44 KBMX 231700
TAFTOI
TAF
KTOI 231720Z 2318/2418 01005KT P6SM SKC=



000
FTUS44 KBMX 231700
TAFEET
TAF
KEET 231720Z 2318/2418 33004KT P6SM SCT250=



000
FTUS44 KBMX 231700
TAFMGM
TAF
KMGM 231720Z 2318/2418 34005KT P6SM SKC=



000
FTUS44 KBMX 231100
TAFTOI
TAF
KTOI 231120Z 2312/2412 36003KT P6SM SKC
     FM240300 00000KT P6SM SCT250=



000
FTUS44 KBMX 231100
TAFTCL
TAF
KTCL 231120Z 2312/2412 35003KT P6SM SKC
     FM240300 00000KT P6SM SCT250=



000
FTUS44 KBMX 231100
TAFEET
TAF
KEET 231120Z 2312/2412 35003KT P6SM SKC
     FM240300 00000KT P6SM SCT250=



000
FTUS44 KBMX 231100
TAFMGM
TAF
KMGM 231120Z 2312/2412 35003KT P6SM SKC
     FM240300 00000KT P6SM SCT250=



000
FTUS44 KBMX 231100
TAFBHM
TAF
KBHM 231120Z 2312/2412 01004KT P6SM SKC
     FM240300 00000KT P6SM SCT250=



000
FTUS44 KBMX 231100
TAFANB
TAF
KANB 231120Z 2312/2412 36003KT P6SM SKC
     FM240300 00000KT P6SM SCT250=



000
FTUS44 KBMX 230500
TAFANB
TAF
KANB 230520Z 2306/2406 36003KT P6SM SKC=



000
FTUS44 KBMX 230500
TAFMGM
TAF
KMGM 230520Z 2306/2406 35003KT P6SM SKC=



000
FTUS44 KBMX 230500
TAFTCL
TAF
KTCL 230520Z 2306/2406 35003KT P6SM SKC=



000
FTUS44 KBMX 230500
TAFTOI
TAF
KTOI 230520Z 2306/2406 36003KT P6SM SKC=



000
FTUS44 KBMX 230500
TAFBHM
TAF
KBHM 230520Z 2306/2406 01004KT P6SM SKC=



000
FTUS44 KBMX 230500
TAFEET
TAF
KEET 230520Z 2306/2406 35003KT P6SM SKC=



000
FTUS44 KBMX 222300
TAFANB
TAF
KANB 222326Z 2300/2324 36003KT P6SM SKC=



000
FTUS44 KBMX 222300
TAFTOI
TAF
KTOI 222326Z 2300/2324 36003KT P6SM SKC=



000
FTUS44 KBMX 222300
TAFBHM
TAF
KBHM 222326Z 2300/2324 01004KT P6SM SKC=



000
FTUS44 KBMX 222300
TAFEET
TAF
KEET 222326Z 2300/2324 35003KT P6SM SKC=



000
FTUS44 KBMX 222300
TAFTCL
TAF
KTCL 222326Z 2300/2324 35004KT P6SM SKC=



000
FTUS44 KBMX 222300
TAFMGM
TAF
KMGM 222326Z 2300/2324 35003KT P6SM SKC=



000
FTUS44 KBMX 221700
TAFTCL
TAF
KTCL 221726Z 2218/2318 02008KT P6SM SKC
     FM230000 00000KT P6SM SKC=



000
FTUS44 KBMX 221700
TAFANB
TAF
KANB 221726Z 2218/2318 36007KT P6SM SKC
     FM230000 00000KT P6SM SKC=



000
FTUS44 KBMX 221700
TAFMGM
TAF
KMGM 221726Z 2218/2318 02008KT P6SM SKC
     FM230000 36003KT P6SM SKC=



000
FTUS44 KBMX 221700
TAFTOI
TAF
KTOI 221726Z 2218/2318 01007KT P6SM SKC
     FM230000 00000KT P6SM SKC=



000
FTUS44 KBMX 221700
TAFBHM
TAF
KBHM 221726Z 2218/2318 36007KT P6SM SKC
     FM230000 VRB02KT P6SM SKC=



000
FTUS44 KBMX 221700
TAFEET
TAF
KEET 221726Z 2218/2318 36005KT P6SM SKC
     FM230000 00000KT P6SM SKC=



000
FTUS44 KBMX 221700
TAFTCL
TAF
KTCL 221726Z 2218/2318 02008KT P6SM SKC
     FM230000 00000KT P6SM SKC=



000
FTUS44 KBMX 221700
TAFMGM
TAF
KMGM 221726Z 2218/2318 02008KT P6SM SKC
     FM230000 36003KT P6SM SKC=



000
FTUS44 KBMX 221700
TAFBHM
TAF
KBHM 221726Z 2218/2318 36007KT P6SM SKC
     FM230000 VRB02KT P6SM SKC=



000
FTUS44 KBMX 221700
TAFTOI
TAF
KTOI 221726Z 2218/2318 01007KT P6SM SKC
     FM230000 00000KT P6SM SKC=



000
FTUS44 KBMX 221700
TAFEET
TAF
KEET 221726Z 2218/2318 36005KT P6SM SKC
     FM230000 00000KT P6SM SKC=



000
FTUS44 KBMX 221700
TAFANB
TAF
KANB 221726Z 2218/2318 36007KT P6SM SKC
     FM230000 00000KT P6SM SKC=



000
FTUS44 KBMX 221100
TAFEET
TAF
KEET 221124Z 2212/2312 01006KT P6SM SKC=



000
FTUS44 KBMX 221100
TAFTCL
TAF
KTCL 221124Z 2212/2312 02005KT P6SM SKC
     FM221500 02008KT P6SM SKC
     FM230000 02003KT P6SM SKC=



000
FTUS44 KBMX 221100
TAFANB
TAF
KANB 221124Z 2212/2312 02006KT P6SM SKC=



000
FTUS44 KBMX 221100
TAFBHM
TAF
KBHM 221124Z 2212/2312 02005KT P6SM SKC
     FM221500 02008KT P6SM SKC
     FM230000 02003KT P6SM SKC=



000
FTUS44 KBMX 221100
TAFMGM
TAF
KMGM 221124Z 2212/2312 01005KT P6SM SKC
     FM221500 02008KT P6SM SKC
     FM230000 01003KT P6SM SKC=



000
FTUS44 KBMX 221100
TAFTOI
TAF
KTOI 221124Z 2212/2312 01005KT P6SM SKC
     FM221500 01008KT P6SM SKC
     FM230000 00000KT P6SM SKC=



000
FTUS44 KBMX 221100 AAA
TAFANB
TAF AMD
KANB 221123Z 2211/2306 02005KT P6SM SKC
      TEMPO 2211/2212 3SM BR=



000
FTUS44 KBMX 220700 AAA
TAFMGM
TAF AMD
KMGM 220738Z 2208/2306 00000KT 4SM BR SKC
      TEMPO 2208/2212 2SM BR
     FM221300 01005KT P6SM SKC=



000
FTUS44 KBMX 220500
TAFEET
TAF
KEET 220523Z 2206/2306 01005KT P6SM SKC=



000
FTUS44 KBMX 220500
TAFTCL
TAF
KTCL 220523Z 2206/2306 02005KT P6SM SKC=



000
FTUS44 KBMX 220500
TAFBHM
TAF
KBHM 220523Z 2206/2306 02005KT P6SM SKC=



000
FTUS44 KBMX 220500
TAFANB
TAF
KANB 220523Z 2206/2306 02005KT P6SM SKC=



000
FTUS44 KBMX 220500
TAFTOI
TAF
KTOI 220523Z 2206/2306 01005KT P6SM SKC=



000
FTUS44 KBMX 220500
TAFMGM
TAF
KMGM 220523Z 2206/2306 01005KT P6SM SKC=



000
FTUS44 KBMX 220500
TAFBHM
TAF
KBHM 220523Z 2206/2306 02005KT P6SM SKC=



000
FTUS44 KBMX 220500
TAFANB
TAF
KANB 220523Z 2206/2306 02005KT P6SM SKC=



000
FTUS44 KBMX 220500
TAFTOI
TAF
KTOI 220523Z 2206/2306 01005KT P6SM SKC=



000
FTUS44 KBMX 220500
TAFEET
TAF
KEET 220523Z 2206/2306 01005KT P6SM SKC=



000
FTUS44 KBMX 220500
TAFMGM
TAF
KMGM 220523Z 2206/2306 01005KT P6SM SKC=



000
FTUS44 KBMX 220500
TAFTCL
TAF
KTCL 220523Z 2206/2306 02005KT P6SM SKC=



000
FTUS44 KBMX 220100 AAA
TAFMGM
TAF AMD
KMGM 220112Z 2201/2224 30004KT P6SM SKC
     FM221400 01005KT P6SM SKC=



000
FTUS44 KBMX 220100 AAA
TAFTOI
TAF AMD
KTOI 220112Z 2201/2224 00000KT P6SM SKC
     FM221400 01005KT P6SM SKC=



000
FTUS44 KBMX 220100 AAA
TAFANB
TAF AMD
KANB 220111Z 2201/2224 00000KT P6SM SKC
     FM221400 02007KT P6SM SKC=



000
FTUS44 KBMX 220100 AAA
TAFTCL
TAF AMD
KTCL 220111Z 2201/2224 36004KT P6SM SKC
     FM221400 02007KT P6SM SKC=



000
FTUS44 KBMX 220100 AAA
TAFEET
TAF AMD
KEET 220110Z 2201/2224 33003KT P6SM SKC
     FM221400 01005KT P6SM SKC=



000
FTUS44 KBMX 220100 AAA
TAFBHM
TAF AMD
KBHM 220109Z 2201/2224 00000KT P6SM SKC
     FM221400 03008KT P6SM SKC=



000
FTUS44 KBMX 211900 AAA
TAFBHM
TAF AMD
KBHM 211930Z 2120/2218 33012KT P6SM SCT060
     FM220200 00000KT P6SM SKC
     FM221400 02007KT P6SM SKC=



000
FTUS44 KBMX 211900 AAA
TAFANB
TAF AMD
KANB 211930Z 2120/2218 33005KT P6SM SCT050
     FM220200 00000KT P6SM SKC
     FM221400 02007KT P6SM SKC=



000
FTUS44 KBMX 211900 AAA
TAFBHM
TAF AMD
KBHM 211930Z 2120/2218 33012KT P6SM SCT060
     FM220200 00000KT P6SM SKC
     FM221400 02007KT P6SM SKC=



    US Dept of Commerce
    National Oceanic and Atmospheric Administration
    National Weather Service
    1325 East West Highway
    Silver Spring, MD 20910
    Page Author: NWS Internet Services Team
Disclaimer
Information Quality
Credits
Glossary
Privacy Policy
Freedom of Information Act (FOIA)
About Us
Career Opportunities